Time;durP1;ratioP1;P1;durP2;ratioP2;P2;SDS_P1;SDS_P2;PMS_P1;PMS_P2;Temp;Humidity;BMP_temperature;BMP_pressure;BME280_temperature;BME280_humidity;BME280_pressure;Samples;Min_cycle;Max_cycle;Signal;HPM_P1;HPM_P2
2021/05/29 00:01:59;;;;;;;;;;;;;;;10.32;100.00;93333.06;5089589;28;19924;-83
2021/05/29 00:04:26;;;;;;;;;;;;;;;10.27;100.00;93331.91;5089626;28;19970;-83
2021/05/29 00:06:52;;;;;;;;;;;;;;;10.26;100.00;93332.91;5089467;28;20001;-82
2021/05/29 00:09:18;;;;;;;;;;;;;;;10.29;100.00;93331.69;5090149;28;19924;-83
2021/05/29 00:11:44;;;;;;;;;;;;;;;10.24;100.00;93332.28;5089628;28;19958;-84
2021/05/29 00:14:11;;;;;;;;;;;;;;;10.22;100.00;93331.72;5089820;28;19927;-84
2021/05/29 00:16:37;;;;;;;;;;;;;;;10.24;100.00;93329.72;5089645;28;19920;-83
2021/05/29 00:19:03;;;;;;;;;;;;;;;10.24;100.00;93327.16;5089625;28;19924;-83
2021/05/29 00:21:29;;;;;;;;;;;;;;;10.28;100.00;93325.00;5043327;28;19931;-83
2021/05/29 00:23:55;;;;;;;;;;;;;;;10.31;100.00;93316.88;5069487;28;20379;-83
2021/05/29 00:26:21;;;;;;;;;;;;;;;10.35;100.00;93319.81;5069107;28;19920;-83
2021/05/29 00:28:47;;;;;;;;;;;;;;;10.36;100.00;93316.25;5069578;28;19920;-83
2021/05/29 00:31:14;;;;;;;;;;;;;;;10.33;100.00;93312.34;5069628;28;19925;-83
2021/05/29 00:33:40;;;;;;;;;;;;;;;10.34;100.00;93306.19;5069348;28;19927;-83
2021/05/29 00:36:07;;;;;;;;;;;;;;;10.32;100.00;93305.59;5069223;28;19929;-82
2021/05/29 00:38:33;;;;;;;;;;;;;;;10.29;100.00;93311.16;5068957;28;19946;-82
2021/05/29 00:40:59;;;;;;;;;;;;;;;10.28;100.00;93307.03;5069315;28;19921;-82
2021/05/29 00:43:25;;;;;;;;;;;;;;;10.27;100.00;93308.00;5069135;28;19932;-82
2021/05/29 00:45:51;;;;;;;;;;;;;;;10.26;100.00;93303.84;5072833;28;19921;-82
2021/05/29 00:48:18;;;;;;;;;;;;;;;10.28;100.00;93304.47;5072594;28;20372;-82
2021/05/29 00:50:50;;;;;;;;;;;;;;;10.27;100.00;93295.16;5072488;28;19927;-82
2021/05/29 00:53:17;;;;;;;;;;;;;;;10.25;100.00;93302.28;5072479;28;19927;-83
2021/05/29 00:55:43;;;;;;;;;;;;;;;10.23;100.00;93299.91;5072608;28;19925;-83
2021/05/29 00:58:09;;;;;;;;;;;;;;;10.26;100.00;93304.66;5072283;28;19920;-83
2021/05/29 01:00:35;;;;;;;;;;;;;;;10.27;100.00;93297.72;5072322;28;19931;-83
2021/05/29 01:03:01;;;;;;;;;;;;;;;10.25;100.00;93299.72;5072283;28;19988;-82
2021/05/29 01:05:28;;;;;;;;;;;;;;;10.18;100.00;93302.31;5072229;28;19927;-82
2021/05/29 01:07:55;;;;;;;;;;;;;;;10.12;100.00;93300.56;5072259;28;19970;-82
2021/05/29 01:10:21;;;;;;;;;;;;;;;10.15;100.00;93295.03;5072115;28;19921;-82
2021/05/29 01:12:48;;;;;;;;;;;;;;;10.07;100.00;93298.63;5072269;28;19921;-82
2021/05/29 01:15:14;;;;;;;;;;;;;;;10.03;100.00;93295.69;5072380;28;19920;-83
2021/05/29 01:17:40;;;;;;;;;;;;;;;10.03;100.00;93295.69;5072302;28;19921;-82
2021/05/29 01:20:07;;;;;;;;;;;;;;;10.01;100.00;93295.06;5072128;28;19924;-83
2021/05/29 01:22:42;;;;;;;;;;;;;;;9.98;100.00;93292.13;5072224;28;19966;-83
2021/05/29 01:25:10;;;;;;;;;;;;;;;9.92;100.00;93290.38;5071825;28;19966;-82
2021/05/29 01:27:36;;;;;;;;;;;;;;;9.88;100.00;93290.00;5072202;28;20278;-82
2021/05/29 01:30:03;;;;;;;;;;;;;;;9.89;100.00;93292.38;5072057;28;20327;-83
2021/05/29 01:32:33;;;;;;;;;;;;;;;9.86;100.00;93289.44;5072144;28;19921;-84
2021/05/29 01:35:00;;;;;;;;;;;;;;;9.81;100.00;93284.88;5072052;28;19972;-83
2021/05/29 01:37:26;;;;;;;;;;;;;;;9.74;100.00;93287.50;5071813;28;19921;-83
2021/05/29 01:39:53;;;;;;;;;;;;;;;9.74;100.00;93284.13;5071714;28;19931;-83
2021/05/29 01:42:21;;;;;;;;;;;;;;;9.67;100.00;93284.13;5071141;28;20057;-83
2021/05/29 01:44:47;;;;;;;;;;;;;;;9.63;100.00;93288.13;5070635;28;19921;-83
2021/05/29 01:47:13;;;;;;;;;;;;;;;9.56;100.00;93277.06;5068021;28;20375;-83
2021/05/29 01:49:39;;;;;;;;;;;;;;;9.54;100.00;93282.38;5071335;28;20257;-84
2021/05/29 01:52:06;;;;;;;;;;;;;;;9.51;100.00;93282.00;5071109;28;20330;-83
2021/05/29 01:54:32;;;;;;;;;;;;;;;9.43;100.00;93288.13;5071180;28;19924;-83
2021/05/29 01:56:59;;;;;;;;;;;;;;;9.41;100.00;93290.13;5071063;28;19995;-83
2021/05/29 01:59:25;;;;;;;;;;;;;;;9.38;100.00;93285.38;5070896;28;19920;-83
2021/05/29 02:01:51;;;;;;;;;;;;;;;9.43;100.00;93280.44;5070815;28;19924;-83
2021/05/29 02:04:17;;;;;;;;;;;;;;;9.40;100.00;93284.19;5070662;28;20414;-82
2021/05/29 02:06:43;;;;;;;;;;;;;;;9.40;100.00;93286.00;5070499;28;19932;-81
2021/05/29 02:09:09;;;;;;;;;;;;;;;9.41;100.00;93290.13;5070825;28;19928;-80
2021/05/29 02:11:35;;;;;;;;;;;;;;;9.41;100.00;93288.38;5070890;28;19932;-79
2021/05/29 02:14:02;;;;;;;;;;;;;;;9.41;100.00;93290.13;5070853;28;19920;-79
2021/05/29 02:16:28;;;;;;;;;;;;;;;9.42;100.00;93281.44;5068376;28;19920;-79
2021/05/29 02:18:54;;;;;;;;;;;;;;;9.38;100.00;93296.44;5070701;28;19920;-79
2021/05/29 02:21:20;;;;;;;;;;;;;;;9.36;100.00;93283.81;5070383;28;19921;-79
2021/05/29 02:23:47;;;;;;;;;;;;;;;9.38;100.00;93287.94;5070746;28;19951;-79
2021/05/29 02:26:14;;;;;;;;;;;;;;;9.32;100.00;93282.66;5070568;28;19927;-79
2021/05/29 02:28:41;;;;;;;;;;;;;;;9.31;100.00;93283.63;5070560;28;19943;-81
2021/05/29 02:31:09;;;;;;;;;;;;;;;9.30;100.00;93284.63;5069946;28;19928;-80
2021/05/29 02:33:35;;;;;;;;;;;;;;;9.25;100.00;93289.53;5070144;28;19925;-79
2021/05/29 02:36:02;;;;;;;;;;;;;;;9.30;100.00;93296.66;5070059;28;19943;-78
2021/05/29 02:38:28;;;;;;;;;;;;;;;9.25;100.00;93293.91;5070530;28;20280;-79
2021/05/29 02:40:55;;;;;;;;;;;;;;;9.15;100.00;93294.28;5070035;28;19932;-78
2021/05/29 02:43:21;;;;;;;;;;;;;;;9.09;100.00;93294.09;5070200;28;19920;-79
2021/05/29 02:45:47;;;;;;;;;;;;;;;9.07;100.00;93296.06;5069976;28;20267;-79
2021/05/29 02:48:14;;;;;;;;;;;;;;;9.11;100.00;93300.81;5070168;28;19925;-78
2021/05/29 02:50:41;;;;;;;;;;;;;;;9.09;100.00;93285.63;5069849;28;20272;-79
2021/05/29 02:53:07;;;;;;;;;;;;;;;9.06;100.00;93289.38;5070282;28;20371;-78
2021/05/29 02:55:34;;;;;;;;;;;;;;;8.98;100.00;93294.69;5070226;28;19921;-80
2021/05/29 02:58:00;;;;;;;;;;;;;;;8.98;100.00;93291.34;5069980;28;19932;-81
2021/05/29 03:00:28;;;;;;;;;;;;;;;8.97;100.00;93292.34;5069916;28;19942;-80
2021/05/29 03:02:54;;;;;;;;;;;;;;;8.92;100.00;93301.41;5070375;28;20276;-79
2021/05/29 03:05:21;;;;;;;;;;;;;;;8.92;100.00;93292.91;5070353;28;20010;-79
2021/05/29 03:07:48;;;;;;;;;;;;;;;8.92;100.00;93296.28;5069446;28;19928;-80
2021/05/29 03:10:15;;;;;;;;;;;;;;;8.89;100.00;93298.44;5070007;28;19924;-79
2021/05/29 03:12:41;;;;;;;;;;;;;;;8.93;100.00;93294.47;5070300;28;20275;-79
2021/05/29 03:15:07;;;;;;;;;;;;;;;8.87;100.00;93298.63;5070050;28;19921;-80
2021/05/29 03:17:34;;;;;;;;;;;;;;;8.85;100.00;93304.94;5069785;28;19966;-81
2021/05/29 03:20:00;;;;;;;;;;;;;;;8.90;100.00;93303.38;5070433;28;20248;-80
2021/05/29 03:22:26;;;;;;;;;;;;;;;8.89;100.00;93311.25;5069900;28;19982;-80
2021/05/29 03:24:52;;;;;;;;;;;;;;;8.89;100.00;93303.56;5069828;28;19927;-80
2021/05/29 03:27:19;;;;;;;;;;;;;;;8.95;100.00;93306.13;5070053;28;19928;-79
2021/05/29 03:29:45;;;;;;;;;;;;;;;8.94;100.00;93303.78;5069909;28;19960;-80
2021/05/29 03:32:11;;;;;;;;;;;;;;;8.94;100.00;93307.09;5070231;28;19920;-80
2021/05/29 03:34:37;;;;;;;;;;;;;;;8.93;100.00;93299.59;5069905;28;20016;-80
2021/05/29 03:37:03;;;;;;;;;;;;;;;8.93;100.00;93302.16;5069914;28;19925;-81
2021/05/29 03:39:30;;;;;;;;;;;;;;;8.91;100.00;93301.59;5069641;28;19928;-81
2021/05/29 03:41:56;;;;;;;;;;;;;;;8.93;100.00;93292.72;5069906;28;20037;-80
2021/05/29 03:44:22;;;;;;;;;;;;;;;8.98;100.00;93299.03;5069602;28;19924;-80
2021/05/29 03:46:48;;;;;;;;;;;;;;;8.94;100.00;93301.22;5069441;28;19920;-79
2021/05/29 03:49:15;;;;;;;;;;;;;;;8.95;100.00;93298.44;5069538;28;19943;-80
2021/05/29 03:51:41;;;;;;;;;;;;;;;8.91;100.00;93292.16;5069789;28;20901;-80
2021/05/29 03:54:07;;;;;;;;;;;;;;;8.96;100.00;93288.97;5069608;28;20068;-81
2021/05/29 03:56:34;;;;;;;;;;;;;;;9.00;100.00;93295.28;5069361;28;19928;-81
2021/05/29 03:59:02;;;;;;;;;;;;;;;8.89;100.00;93276.16;5068926;28;19920;-81
2021/05/29 04:01:28;;;;;;;;;;;;;;;9.06;100.00;93291.94;5069540;28;20350;-80
2021/05/29 04:03:54;;;;;;;;;;;;;;;9.07;100.00;93292.72;5069732;28;19966;-80
2021/05/29 04:06:21;;;;;;;;;;;;;;;9.06;100.00;93291.94;5069076;28;19924;-80
2021/05/29 04:08:47;;;;;;;;;;;;;;;9.06;100.00;93291.13;5068989;28;19921;-81
2021/05/29 04:11:13;;;;;;;;;;;;;;;9.11;100.00;93299.03;5069647;28;19921;-81
2021/05/29 04:13:40;;;;;;;;;;;;;;;9.16;100.00;93295.88;5065531;28;19928;-82
2021/05/29 04:16:06;;;;;;;;;;;;;;;9.19;100.00;93295.47;5069816;28;20372;-81
2021/05/29 04:18:32;;;;;;;;;;;;;;;9.23;100.00;93302.56;5071279;28;20104;-84
2021/05/29 04:20:58;;;;;;;;;;;;;;;9.35;100.00;93304.50;5093707;28;19931;-84
2021/05/29 04:23:24;;;;;;;;;;;;;;;9.39;100.00;93304.94;5077291;28;19920;-84
2021/05/29 04:25:50;;;;;;;;;;;;;;;9.48;100.00;93306.28;5072755;28;19920;-84
2021/05/29 04:28:16;;;;;;;;;;;;;;;9.51;100.00;93311.00;5072954;28;19925;-84
2021/05/29 04:30:43;;;;;;;;;;;;;;;9.54;100.00;93300.34;5074556;28;19921;-84
2021/05/29 04:33:09;;;;;;;;;;;;;;;9.61;100.00;93306.25;5093170;28;19924;-84
2021/05/29 04:35:36;;;;;;;;;;;;;;;9.61;100.00;93306.25;5093328;28;19997;-84
2021/05/29 04:38:02;;;;;;;;;;;;;;;9.65;100.00;93303.28;5077475;28;19920;-83
2021/05/29 04:40:28;;;;;;;;;;;;;;;9.80;100.00;93296.16;5072904;28;19925;-82
2021/05/29 04:42:54;;;;;;;;;;;;;;;9.85;100.00;93292.97;5073074;28;19920;-82
2021/05/29 04:45:21;;;;;;;;;;;;;;;9.94;100.00;93293.53;5072752;28;19928;-82
2021/05/29 04:47:48;;;;;;;;;;;;;;;10.04;100.00;93301.56;5072390;28;19946;-82
2021/05/29 04:50:14;;;;;;;;;;;;;;;10.10;100.00;93302.56;5072567;28;20261;-83
2021/05/29 04:52:41;;;;;;;;;;;;;;;10.23;100.00;93291.44;5073131;28;20302;-83
2021/05/29 04:55:08;;;;;;;;;;;;;;;10.34;100.00;93295.13;5072597;28;19920;-81
2021/05/29 04:57:34;;;;;;;;;;;;;;;10.43;100.00;93296.50;5072580;28;19931;-81
2021/05/29 05:00:00;;;;;;;;;;;;;;;10.56;100.00;93295.66;5072403;28;19928;-81
2021/05/29 05:02:26;;;;;;;;;;;;;;;10.67;100.00;93299.31;5072218;28;20383;-81
2021/05/29 05:04:53;;;;;;;;;;;;;;;10.81;100.00;93294.88;5072919;28;20019;-80
2021/05/29 05:07:19;;;;;;;;;;;;;;;10.93;100.00;93300.13;5074801;28;19920;-79
2021/05/29 05:09:45;;;;;;;;;;;;;;;11.03;100.00;93294.53;5092360;28;19928;-80
2021/05/29 05:12:11;;;;;;;;;;;;;;;11.12;100.00;93293.28;5092657;28;20272;-80
2021/05/29 05:14:37;;;;;;;;;;;;;;;11.24;100.00;93290.78;5092409;28;20002;-81
2021/05/29 05:17:04;;;;;;;;;;;;;;;11.35;100.00;93300.38;5092336;28;19924;-81
2021/05/29 05:19:30;;;;;;;;;;;;;;;11.43;100.00;93295.97;5092222;28;19920;-80
2021/05/29 05:21:57;;;;;;;;;;;;;;;11.54;100.00;93292.69;5086188;28;19920;-81
2021/05/29 05:24:23;;;;;;;;;;;;;;;11.62;100.00;93296.78;5071884;28;20306;-81
2021/05/29 05:26:49;;;;;;;;;;;;;;;11.76;100.00;93298.19;5072210;28;19920;-81
2021/05/29 05:29:15;;;;;;;;;;;;;;;11.85;100.00;93305.66;5071504;28;20324;-82
2021/05/29 05:31:43;;;;;;;;;;;;;;;11.97;100.00;93303.13;5071855;28;19925;-82
2021/05/29 05:34:10;;;;;;;;;;;;;;;12.06;100.00;93313.94;5071874;28;20015;-82
2021/05/29 05:36:36;;;;;;;;;;;;;;;12.10;100.00;93315.09;5071575;28;19920;-82
2021/05/29 05:39:09;;;;;;;;;;;;;;;12.27;100.00;93303.19;5071612;28;19931;-81
2021/05/29 05:41:36;;;;;;;;;;;;;;;12.44;100.00;93310.31;5071826;28;19966;-81
2021/05/29 05:44:02;;;;;;;;;;;;;;;12.57;100.00;93319.66;5071901;28;19931;-84
2021/05/29 05:46:28;;;;;;;;;;;;;;;12.51;97.43;93317.97;5072079;28;19920;-86
2021/05/29 05:48:54;;;;;;;;;;;;;;;12.60;97.61;93310.72;5071411;28;19927;-86
2021/05/29 05:51:20;;;;;;;;;;;;;;;12.82;98.49;93322.09;5071641;28;20261;-81
2021/05/29 05:53:46;;;;;;;;;;;;;;;12.72;96.01;93321.06;5068765;28;19924;-82
2021/05/29 05:56:17;;;;;;;;;;;;;;;12.87;96.04;93313.69;5069459;28;19921;-81
2021/05/29 05:58:43;;;;;;;;;;;;;;;13.13;92.71;93321.25;5070849;28;19931;-82
2021/05/29 06:01:09;;;;;;;;;;;;;;;13.32;94.89;93304.69;5071480;28;19927;-82
2021/05/29 06:03:35;;;;;;;;;;;;;;;13.69;96.45;93300.31;5071311;28;19935;-83
2021/05/29 06:06:01;;;;;;;;;;;;;;;14.00;93.92;93311.25;5071385;28;19920;-84
2021/05/29 06:08:27;;;;;;;;;;;;;;;14.05;90.37;93308.00;5083112;28;19927;-81
2021/05/29 06:10:53;;;;;;;;;;;;;;;14.25;90.54;93307.59;5091292;28;20264;-83
2021/05/29 06:13:33;;;;;;;;;;;;;;;14.14;88.25;93307.41;5091043;28;19928;-84
2021/05/29 06:21:27;;;;;;;;;;;;;;;15.32;85.60;93307.06;5088764;28;20377;-84
2021/05/29 06:23:53;;;;;;;;;;;;;;;15.70;86.04;93306.56;5070676;28;19924;-84
2021/05/29 06:26:19;;;;;;;;;;;;;;;15.80;84.02;93296.34;5070576;28;19946;-83
2021/05/29 06:28:47;;;;;;;;;;;;;;;15.52;81.81;93299.84;5070788;28;19922;-83
2021/05/29 06:31:13;;;;;;;;;;;;;;;15.65;81.35;93299.53;5070671;28;19925;-82
2021/05/29 06:33:39;;;;;;;;;;;;;;;15.97;79.92;93293.72;5070484;28;20023;-83
2021/05/29 06:36:05;;;;;;;;;;;;;;;16.43;82.95;93287.47;5070528;28;19920;-83
2021/05/29 06:38:31;;;;;;;;;;;;;;;16.41;79.75;93286.94;5070351;28;19925;-82
2021/05/29 06:40:57;;;;;;;;;;;;;;;16.54;78.79;93273.56;5070008;28;19920;-83
2021/05/29 06:43:23;;;;;;;;;;;;;;;16.95;78.30;93275.00;5069857;28;19977;-82
2021/05/29 06:45:51;;;;;;;;;;;;;;;17.34;76.28;93279.97;5070262;28;19924;-87
2021/05/29 06:48:19;;;;;;;;;;;;;;;17.28;75.16;93269.78;5070137;28;20015;-84
2021/05/29 06:50:50;;;;;;;;;;;;;;;17.65;75.66;93268.19;5069970;28;19966;-83
2021/05/29 06:53:21;;;;;;;;;;;;;;;17.53;76.80;93258.00;5069998;28;20011;-86
2021/05/29 06:58:48;;;;;;;;;;;;;;;18.42;73.56;93271.09;5070031;28;19927;-83
2021/05/29 07:01:14;;;;;;;;;;;;;;;17.76;74.85;93262.78;5070163;28;19920;-84
2021/05/29 07:03:41;;;;;;;;;;;;;;;18.20;74.84;93260.91;5070198;28;19928;-83
2021/05/29 07:06:07;;;;;;;;;;;;;;;18.24;73.50;93258.56;5069824;28;19920;-84
2021/05/29 07:08:33;;;;;;;;;;;;;;;17.81;74.31;93261.25;5082597;28;19924;-87
2021/05/29 07:10:59;;;;;;;;;;;;;;;17.98;70.26;93258.47;5090269;28;20263;-86
2021/05/29 07:13:25;;;;;;;;;;;;;;;17.38;75.08;93263.88;5090113;28;19920;-82
2021/05/29 07:15:51;;;;;;;;;;;;;;;17.83;73.79;93261.78;5090380;28;19930;-84
2021/05/29 07:18:21;;;;;;;;;;;;;;;18.41;74.36;93260.94;5090365;28;19924;-85
2021/05/29 07:20:47;;;;;;;;;;;;;;;18.65;71.09;93257.88;5089941;28;19920;-86
2021/05/29 07:23:13;;;;;;;;;;;;;;;18.99;71.28;93253.97;5073194;28;19931;-81
2021/05/29 07:25:41;;;;;;;;;;;;;;;19.27;69.31;93254.50;5070108;28;19920;-85
2021/05/29 07:28:07;;;;;;;;;;;;;;;19.33;71.01;93248.25;5069479;28;19924;-82
2021/05/29 07:30:33;;;;;;;;;;;;;;;19.73;70.11;93245.81;5069699;28;20368;-83
2021/05/29 07:32:59;;;;;;;;;;;;;;;19.84;67.73;93242.13;5069865;28;19921;-84
2021/05/29 07:35:27;;;;;;;;;;;;;;;19.89;68.31;93244.72;5069605;28;19986;-82
2021/05/29 07:37:53;;;;;;;;;;;;;;;19.95;66.56;93244.69;5069600;28;19932;-83
2021/05/29 07:40:19;;;;;;;;;;;;;;;20.33;66.76;93249.50;5069521;28;19967;-84
2021/05/29 07:42:46;;;;;;;;;;;;;;;19.99;64.35;93240.50;5068941;28;19930;-82
2021/05/29 07:45:12;;;;;;;;;;;;;;;18.99;64.71;93230.56;5087727;28;19931;-85
2021/05/29 07:47:39;;;;;;;;;;;;;;;18.73;66.57;93228.72;5089231;28;19927;-81
2021/05/29 07:50:06;;;;;;;;;;;;;;;17.93;67.88;93233.25;5089481;28;19924;-83
2021/05/29 07:52:33;;;;;;;;;;;;;;;18.21;70.11;93226.06;5090389;28;19920;-83
2021/05/29 07:54:59;;;;;;;;;;;;;;;17.69;68.59;93236.25;5094320;28;19924;-83
2021/05/29 07:57:25;;;;;;;;;;;;;;;17.96;68.62;93227.53;5093763;28;19999;-83
2021/05/29 07:59:51;;;;;;;;;;;;;;;18.50;69.30;93233.41;5093772;28;19927;-84
2021/05/29 08:02:17;;;;;;;;;;;;;;;18.50;66.32;93225.59;5093965;28;19931;-83
2021/05/29 08:04:43;;;;;;;;;;;;;;;18.38;67.95;93231.03;5094134;28;20500;-83
2021/05/29 08:07:09;;;;;;;;;;;;;;;18.29;68.24;93232.59;5092747;28;19920;-83
2021/05/29 08:09:36;;;;;;;;;;;;;;;17.97;67.21;93229.06;5073164;28;19983;-83
2021/05/29 08:12:02;;;;;;;;;;;;;;;17.91;67.15;93217.09;5073562;28;19921;-83
2021/05/29 08:14:31;;;;;;;;;;;;;;;18.05;69.65;93214.81;5073319;28;19924;-84
2021/05/29 08:16:57;;;;;;;;;;;;;;;18.60;67.67;93213.66;5073440;28;20344;-85
2021/05/29 08:19:23;;;;;;;;;;;;;;;18.77;67.31;93203.75;5072927;28;19924;-83
2021/05/29 08:21:51;;;;;;;;;;;;;;;19.30;66.47;93201.91;5073213;28;19920;-85
2021/05/29 08:24:17;;;;;;;;;;;;;;;19.33;67.72;93201.38;5073331;28;19921;-81
2021/05/29 08:26:45;;;;;;;;;;;;;;;19.30;66.10;93194.84;5073061;28;19931;-82
2021/05/29 08:29:11;;;;;;;;;;;;;;;18.68;65.24;93211.31;5073276;28;19966;-80
2021/05/29 08:31:37;;;;;;;;;;;;;;;18.45;67.73;93204.00;5073151;28;19925;-80
2021/05/29 08:34:04;;;;;;;;;;;;;;;19.15;67.37;93203.50;5072711;28;19924;-80
2021/05/29 08:36:30;;;;;;;;;;;;;;;19.27;66.42;93202.44;5072569;28;19920;-80
2021/05/29 08:39:05;;;;;;;;;;;;;;;19.31;66.05;93203.47;5072648;28;19924;-81
2021/05/29 08:41:31;;;;;;;;;;;;;;;19.81;65.16;93200.19;5073444;28;20423;-85
2021/05/29 08:43:58;;;;;;;;;;;;;;;20.27;62.06;93210.38;5073134;28;19920;-84
2021/05/29 08:46:24;;;;;;;;;;;;;;;20.51;60.29;93214.16;5073227;28;20356;-83
2021/05/29 08:48:52;;;;;;;;;;;;;;;20.31;62.24;93209.88;5073263;28;19920;-84
2021/05/29 08:51:18;;;;;;;;;;;;;;;20.15;58.25;93202.13;5072990;28;20356;-82
2021/05/29 08:53:45;;;;;;;;;;;;;;;19.77;58.77;93200.69;5073179;28;19947;-85
2021/05/29 08:56:11;;;;;;;;;;;;;;;19.93;61.52;93199.84;5073230;28;20023;-84
2021/05/29 08:58:37;;;;;;;;;;;;;;;20.59;62.53;93195.31;5073060;28;19920;-83
2021/05/29 09:01:05;;;;;;;;;;;;;;;20.45;56.11;93199.59;5072879;28;19924;-83
2021/05/29 09:03:41;;;;;;;;;;;;;;;20.39;54.28;93196.22;5072837;28;19924;-82
2021/05/29 09:06:08;;;;;;;;;;;;;;;19.60;52.22;93200.25;5072486;28;19921;-83
2021/05/29 09:08:34;;;;;;;;;;;;;;;19.30;54.72;93189.66;5085543;28;19930;-82
2021/05/29 09:11:00;;;;;;;;;;;;;;;19.48;55.40;93190.91;5093186;28;19970;-86
2021/05/29 09:13:27;;;;;;;;;;;;;;;20.00;53.65;93195.16;5092998;28;19961;-83
2021/05/29 09:15:54;;;;;;;;;;;;;;;20.40;55.13;93187.34;5092191;28;19920;-83
2021/05/29 09:18:31;;;;;;;;;;;;;;;21.19;55.94;93183.88;5072567;28;19927;-83
2021/05/29 09:21:16;;;;;;;;;;;;;;;21.73;56.11;93177.81;5072848;28;19920;-83
2021/05/29 09:23:45;;;;;;;;;;;;;;;21.35;53.06;93152.38;5052789;28;19928;-85
2021/05/29 09:26:11;;;;;;;;;;;;;;;21.74;52.80;93172.31;5052765;28;19964;-83
2021/05/29 09:28:40;;;;;;;;;;;;;;;21.25;54.28;93173.38;5052574;28;19925;-85
2021/05/29 09:31:08;;;;;;;;;;;;;;;20.58;53.84;93165.06;5052476;28;20315;-86
2021/05/29 09:33:35;;;;;;;;;;;;;;;21.00;55.66;93164.72;5051768;28;19931;-83
2021/05/29 09:36:05;;;;;;;;;;;;;;;20.24;52.87;93166.59;5051353;28;20366;-84
2021/05/29 09:38:32;;;;;;;;;;;;;;;20.27;56.84;93166.06;5051736;28;20054;-84
2021/05/29 09:40:59;;;;;;;;;;;;;;;20.13;54.84;93165.88;5051743;28;19932;-89
2021/05/29 09:43:25;;;;;;;;;;;;;;;20.24;54.64;93164.00;5051568;28;20014;-85
2021/05/29 09:45:58;;;;;;;;;;;;;;;21.03;56.49;93149.28;5051226;28;20390;-86
2021/05/29 09:48:24;;;;;;;;;;;;;;;21.44;53.94;93147.31;5051542;28;20275;-87
2021/05/29 09:51:03;;;;;;;;;;;;;;;21.94;52.49;93151.44;5051142;28;19921;-91
2021/05/29 09:56:24;;;;;;;;;;;;;;;21.99;48.36;93146.88;5048458;28;20388;-85
2021/05/29 09:58:58;;;;;;;;;;;;;;;21.88;51.74;93148.09;5051585;28;19920;-91
2021/05/29 10:01:40;;;;;;;;;;;;;;;21.71;50.30;93145.97;5051697;28;19920;-89
2021/05/29 10:04:07;;;;;;;;;;;;;;;20.73;53.24;93155.56;5048753;28;20369;-89
2021/05/29 10:06:34;;;;;;;;;;;;;;;21.38;53.17;93141.34;5050936;28;19921;-90
2021/05/29 10:09:03;;;;;;;;;;;;;;;21.25;49.68;93134.97;5083793;28;20685;-89
2021/05/29 10:11:30;;;;;;;;;;;;;;;21.27;50.07;93137.28;5091040;28;20387;-88
2021/05/29 10:13:56;;;;;;;;;;;;;;;21.18;49.34;93137.13;5091598;28;19924;-89
2021/05/29 10:16:24;;;;;;;;;;;;;;;21.07;54.84;93133.84;5090964;28;20378;-86
2021/05/29 10:18:53;;;;;;;;;;;;;;;20.87;51.32;93140.81;5090977;28;20383;-84
2021/05/29 10:21:19;;;;;;;;;;;;;;;20.27;52.12;93139.97;5089465;28;19920;-81
2021/05/29 10:23:47;;;;;;;;;;;;;;;19.96;54.17;93140.19;5070926;28;19920;-84
2021/05/29 10:26:15;;;;;;;;;;;;;;;20.10;52.88;93140.38;5071014;28;19920;-83
2021/05/29 10:28:41;;;;;;;;;;;;;;;20.93;53.69;93126.66;5070804;28;20380;-81
2021/05/29 10:31:07;;;;;;;;;;;;;;;21.63;51.57;93135.03;5070867;28;20508;-81
2021/05/29 10:33:33;;;;;;;;;;;;;;;;;;5070852;28;19926;-82
2021/05/29 10:35:59;;;;;;;;;;;;;;;22.54;50.85;93131.75;5071034;28;19920;-81
2021/05/29 10:38:41;;;;;;;;;;;;;;;22.93;50.14;93127.16;5077321;28;20007;-83
2021/05/29 10:41:08;;;;;;;;;;;;;;;22.57;47.77;93123.31;5072750;28;19957;-82
2021/05/29 10:43:36;;;;;;;;;;;;;;;22.96;49.31;93126.59;5070700;28;19928;-82
2021/05/29 10:46:13;;;;;;;;;;;;;;;22.93;49.04;93129.78;5070929;28;19928;-78
2021/05/29 10:48:43;;;;;;;;;;;;;;;21.91;50.17;93126.63;5070568;28;19932;-80
2021/05/29 10:51:10;;;;;;;;;;;;;;;22.34;49.26;93123.13;5070136;28;19921;-82
2021/05/29 10:53:38;;;;;;;;;;;;;;;21.83;46.84;93119.41;5070178;28;20027;-88
2021/05/29 10:56:18;;;;;;;;;;;;;;;21.80;49.66;93128.56;5070302;28;19924;-86
2021/05/29 10:58:59;;;;;;;;;;;;;;;22.70;53.16;93116.56;5056895;28;19924;-81
2021/05/29 11:01:51;;;;;;;;;;;;;;;22.87;51.94;93120.47;5070401;28;19977;-84
2021/05/29 11:04:21;;;;;;;;;;;;;;;23.26;48.71;93115.81;5070126;28;19920;-83
2021/05/29 11:06:48;;;;;;;;;;;;;;;22.95;49.28;93120.56;5070253;28;20362;-83
2021/05/29 11:09:15;;;;;;;;;;;;;;;22.91;48.45;93119.59;5088469;28;19924;-84
2021/05/29 11:11:54;;;;;;;;;;;;;;;22.69;49.66;93120.25;5090402;28;19920;-81
2021/05/29 11:14:22;;;;;;;;;;;;;;;22.55;46.86;93125.44;5090115;28;20383;-83
2021/05/29 11:17:03;;;;;;;;;;;;;;;22.59;48.58;93123.03;5090065;28;19920;-83
2021/05/29 11:19:31;;;;;;;;;;;;;;;22.53;50.25;93123.13;5088524;28;20426;-82
2021/05/29 11:22:01;;;;;;;;;;;;;;;22.87;47.90;93118.63;5084182;28;19970;-82
2021/05/29 11:24:27;;;;;;;;;;;;;;;23.17;48.08;93124.38;5069760;28;19924;-83
2021/05/29 11:26:53;;;;;;;;;;;;;;;23.44;46.54;93116.81;5070165;28;19924;-82
2021/05/29 11:29:19;;;;;;;;;;;;;;;23.24;45.29;93110.91;5069473;28;19920;-82
2021/05/29 11:31:47;;;;;;;;;;;;;;;23.01;44.98;93118.63;5069902;28;19932;-83
2021/05/29 11:34:13;;;;;;;;;;;;;;;23.69;45.40;93117.41;5069856;28;20007;-82
2021/05/29 11:36:41;;;;;;;;;;;;;;;23.95;44.75;93108.97;5069740;28;20253;-82
2021/05/29 11:39:10;;;;;;;;;;;;;;;24.02;47.58;93109.31;5069202;28;20470;-82
2021/05/29 11:41:36;;;;;;;;;;;;;;;23.99;38.53;93108.09;5069692;28;19924;-81
2021/05/29 11:44:03;;;;;;;;;;;;;;;23.56;38.60;93101.38;5069945;28;19928;-82
2021/05/29 11:46:30;;;;;;;;;;;;;;;23.48;38.38;93104.69;5069924;28;20018;-81
2021/05/29 11:48:57;;;;;;;;;;;;;;;23.65;40.18;93106.69;5069936;28;19921;-82
2021/05/29 11:51:24;;;;;;;;;;;;;;;22.27;39.58;93101.78;5069759;28;19939;-82
2021/05/29 11:53:51;;;;;;;;;;;;;;;22.18;42.99;93103.47;5069827;28;19924;-81
2021/05/29 11:56:18;;;;;;;;;;;;;;;22.07;42.35;93098.41;5069536;28;19928;-81
2021/05/29 11:58:52;;;;;;;;;;;;;;;22.18;44.27;93090.41;5069201;28;19966;-80
2021/05/29 12:01:19;;;;;;;;;;;;;;;22.31;47.19;93084.44;5069457;28;20388;-81
2021/05/29 12:03:46;;;;;;;;;;;;;;;22.54;43.29;93093.25;5069277;28;19921;-81
2021/05/29 12:06:14;;;;;;;;;;;;;;;22.62;42.33;93093.66;5069440;28;19920;-80
2021/05/29 12:08:56;;;;;;;;;;;;;;;23.16;44.52;93077.50;5083049;28;19924;-81
2021/05/29 12:11:27;;;;;;;;;;;;;;;23.93;42.83;93079.63;5089739;28;19924;-85
2021/05/29 12:13:57;;;;;;;;;;;;;;;24.52;41.80;93076.97;5089605;28;19920;-83
2021/05/29 12:16:27;;;;;;;;;;;;;;;24.93;39.47;93082.28;5089435;28;19924;-83
2021/05/29 12:18:54;;;;;;;;;;;;;;;25.24;40.51;93067.53;5089808;28;19924;-84
2021/05/29 12:21:21;;;;;;;;;;;;;;;25.25;39.32;93072.50;5089050;28;19920;-84
2021/05/29 12:23:55;;;;;;;;;;;;;;;25.08;38.23;93067.97;5069405;28;19978;-83
2021/05/29 12:26:21;;;;;;;;;;;;;;;25.34;37.25;93064.63;5069459;28;19943;-83
2021/05/29 12:28:47;;;;;;;;;;;;;;;24.67;36.80;93065.31;5068914;28;19920;-84
2021/05/29 12:31:13;;;;;;;;;;;;;;;23.99;41.80;93067.97;5069406;28;19920;-83
2021/05/29 12:33:39;;;;;;;;;;;;;;;24.03;43.15;93067.06;5071460;28;19932;-81
2021/05/29 12:36:06;;;;;;;;;;;;;;;23.41;40.39;93070.25;5069040;28;19921;-79
2021/05/29 12:38:34;;;;;;;;;;;;;;;22.94;42.52;93055.38;5069078;28;19925;-78
2021/05/29 12:41:01;;;;;;;;;;;;;;;22.91;43.54;93061.97;5072074;28;19921;-79
2021/05/29 12:43:27;;;;;;;;;;;;;;;22.36;43.26;93068.66;5072870;28;19925;-81
2021/05/29 12:45:53;;;;;;;;;;;;;;;22.75;44.32;93064.09;5073143;28;19921;-80
2021/05/29 12:48:19;;;;;;;;;;;;;;;22.78;46.40;93060.13;5073110;28;19987;-80
2021/05/29 12:53:49;;;;;;;;;;;;;;;22.34;47.27;93067.38;5056830;28;19988;-80
2021/05/29 12:56:16;;;;;;;;;;;;;;;21.38;47.13;93067.44;5072753;28;19947;-80
2021/05/29 12:58:57;;;;;;;;;;;;;;;20.98;49.04;93065.78;5072601;28;20022;-80
2021/05/29 13:09:39;;;;;;;;;;;;;;;21.72;48.31;93058.63;5093172;28;19958;-80